createdAt,value
2022-07-29T00:02:25.278Z,1.20
2022-07-29T00:07:32.546Z,1.10
2022-07-29T00:12:38.842Z,1.00
2022-07-29T00:17:52.006Z,1.15
2022-07-29T00:23:06.390Z,1.38
2022-07-29T00:28:12.542Z,1.00
2022-07-29T00:33:20.161Z,1.55
2022-07-29T00:38:28.252Z,0.98
2022-07-29T00:43:44.814Z,1.20
2022-07-29T00:48:49.515Z,0.80
2022-07-29T00:53:58.699Z,1.25
2022-07-29T00:59:05.654Z,1.20
2022-07-29T01:04:12.212Z,1.20
2022-07-29T01:09:19.997Z,1.30
2022-07-29T01:15:00.146Z,1.10
2022-07-29T01:20:17.835Z,1.33
2022-07-29T01:25:53.190Z,1.17
2022-07-29T01:31:25.261Z,1.60
2022-07-29T01:36:35.818Z,1.10
2022-07-29T01:42:01.706Z,1.27
2022-07-29T01:47:20.226Z,1.23
2022-07-29T01:52:38.405Z,1.25
2022-07-29T01:57:50.024Z,1.30
2022-07-29T02:03:03.249Z,1.50
2022-07-29T02:08:15.145Z,1.23
2022-07-29T02:13:28.134Z,1.33
2022-07-29T02:18:44.516Z,1.35
2022-07-29T02:23:55.320Z,1.45
2022-07-29T02:29:22.163Z,1.30
2022-07-29T02:34:43.648Z,1.20
2022-07-29T02:39:57.160Z,1.08
2022-07-29T02:45:07.965Z,1.55
2022-07-29T02:50:29.901Z,1.60
2022-07-29T02:55:43.426Z,1.17
2022-07-29T03:00:52.648Z,1.58
2022-07-29T03:06:03.369Z,1.48
2022-07-29T03:11:09.483Z,1.23
2022-07-29T03:16:20.445Z,1.40
2022-07-29T03:21:30.424Z,1.30
2022-07-29T03:26:39.561Z,1.20
2022-07-29T03:31:52.755Z,1.02
2022-07-29T03:37:01.299Z,1.00
2022-07-29T03:42:10.989Z,1.35
2022-07-29T03:47:17.071Z,1.20
2022-07-29T03:52:33.279Z,1.23
2022-07-29T03:57:43.004Z,1.35
2022-07-29T04:02:50.055Z,1.30
2022-07-29T04:08:14.354Z,1.20
2022-07-29T04:13:24.425Z,1.30
2022-07-29T04:19:06.344Z,1.35
2022-07-29T04:24:19.281Z,1.52
2022-07-29T04:29:56.983Z,1.20
2022-07-29T04:35:01.868Z,1.45
2022-07-29T04:40:31.368Z,1.50
2022-07-29T04:45:38.070Z,1.40
2022-07-29T04:50:49.098Z,1.70
2022-07-29T04:56:01.884Z,1.75
2022-07-29T05:01:07.839Z,1.65
2022-07-29T05:06:13.835Z,1.58
2022-07-29T05:11:30.602Z,1.50
2022-07-29T05:16:41.459Z,1.52
2022-07-29T05:22:03.112Z,1.77
2022-07-29T05:27:17.394Z,1.58
2022-07-29T05:32:20.986Z,1.60
2022-07-29T05:37:32.489Z,1.70
2022-07-29T05:42:41.640Z,1.67
2022-07-29T05:47:50.447Z,1.73
2022-07-29T05:53:20.023Z,1.80
2022-07-29T05:59:05.574Z,2.05
2022-07-29T06:04:24.857Z,1.95
2022-07-29T06:09:52.043Z,1.83
2022-07-29T06:15:19.057Z,1.70
2022-07-29T06:20:27.306Z,1.67
2022-07-29T06:25:51.728Z,2.10
2022-07-29T06:31:22.577Z,2.15
2022-07-29T06:36:35.714Z,2.08
2022-07-29T06:41:52.800Z,2.35
2022-07-29T06:47:04.707Z,1.95
2022-07-29T06:52:10.261Z,2.40
2022-07-29T06:57:20.838Z,2.50
2022-07-29T07:02:32.689Z,2.20
2022-07-29T07:07:49.063Z,2.20
2022-07-29T07:12:57.860Z,2.58
2022-07-29T07:18:05.778Z,2.28
2022-07-29T07:23:12.648Z,2.10
2022-07-29T07:28:18.458Z,2.60
2022-07-29T07:33:39.558Z,2.15
2022-07-29T07:38:45.147Z,2.58
2022-07-29T07:43:52.939Z,3.15
2022-07-29T07:49:04.506Z,3.70
2022-07-29T07:54:18.437Z,3.03
2022-07-29T07:59:30.161Z,2.60
2022-07-29T08:04:38.472Z,2.90
2022-07-29T08:09:57.142Z,2.80
2022-07-29T08:15:21.298Z,2.47
2022-07-29T08:20:31.225Z,2.75
2022-07-29T08:25:38.600Z,2.45
2022-07-29T08:30:48.650Z,2.70
2022-07-29T08:35:55.037Z,2.67
2022-07-29T08:41:04.258Z,2.45
2022-07-29T08:46:16.723Z,2.28
2022-07-29T08:51:33.882Z,2.30
2022-07-29T08:56:42.849Z,2.40
2022-07-29T09:01:51.051Z,2.28
2022-07-29T09:07:21.768Z,2.72
2022-07-29T09:12:28.837Z,2.40
2022-07-29T09:17:55.844Z,2.55
2022-07-29T09:23:23.398Z,3.03
2022-07-29T09:28:46.982Z,2.75
2022-07-29T09:39:47.439Z,3.30
2022-07-29T09:44:54.509Z,3.22
2022-07-29T09:50:20.742Z,2.97
2022-07-29T09:55:37.453Z,3.13
2022-07-29T10:01:04.798Z,2.90
2022-07-29T10:06:11.258Z,2.90
2022-07-29T10:11:48.971Z,2.33
2022-07-29T10:16:56.352Z,2.40
2022-07-29T10:22:36.902Z,2.20
2022-07-29T10:28:16.552Z,2.35
2022-07-29T10:33:40.396Z,2.45
2022-07-29T10:38:59.724Z,2.40
2022-07-29T10:44:41.036Z,2.28
2022-07-29T10:50:04.570Z,2.13
2022-07-29T10:55:43.689Z,1.80
2022-07-29T11:00:57.563Z,2.10
2022-07-29T11:06:08.741Z,1.50
2022-07-29T11:11:43.918Z,1.83
2022-07-29T11:17:06.908Z,1.80
2022-07-29T11:22:45.809Z,1.67
2022-07-29T11:27:54.599Z,1.90
2022-07-29T11:33:00.364Z,1.63
2022-07-29T11:38:31.925Z,1.52
2022-07-29T11:43:50.777Z,1.67
2022-07-29T11:49:09.682Z,1.95
2022-07-29T11:54:27.437Z,1.55
2022-07-29T11:59:35.505Z,1.88
2022-07-29T12:04:53.585Z,1.83
2022-07-29T12:10:30.087Z,2.08
2022-07-29T12:15:45.957Z,1.83
2022-07-29T12:20:56.103Z,2.30
2022-07-29T12:44:10.428Z,2.05
2022-07-29T12:49:38.146Z,2.30
2022-07-29T12:54:52.448Z,2.17
2022-07-29T13:00:06.073Z,2.28
2022-07-29T13:05:14.542Z,2.17
2022-07-29T13:10:24.059Z,2.40
2022-07-29T13:15:35.145Z,2.00
2022-07-29T13:20:43.705Z,1.80
2022-07-29T13:25:52.246Z,2.13
2022-07-29T13:31:00.762Z,2.17
2022-07-29T13:36:17.860Z,2.28
2022-07-29T13:41:25.218Z,2.58
2022-07-29T13:46:36.529Z,2.47
2022-07-29T13:51:49.156Z,2.58
2022-07-29T13:56:57.583Z,2.33
2022-07-29T14:02:13.343Z,2.70
2022-07-29T14:07:22.682Z,2.42
2022-07-29T14:12:27.385Z,2.22
2022-07-29T14:17:33.311Z,2.25
2022-07-29T14:22:45.067Z,2.47
2022-07-29T14:28:00.284Z,2.50
2022-07-29T14:33:07.379Z,2.63
2022-07-29T14:38:18.363Z,2.28
2022-07-29T14:43:25.359Z,2.25
2022-07-29T14:48:33.695Z,2.63
2022-07-29T14:53:42.439Z,2.20
2022-07-29T14:58:52.615Z,2.17
2022-07-29T15:04:11.079Z,2.60
2022-07-29T15:09:20.767Z,2.35
2022-07-29T15:14:40.362Z,2.40
2022-07-29T15:19:57.003Z,3.38
2022-07-29T15:25:22.313Z,2.78
2022-07-29T15:30:44.984Z,2.40
2022-07-29T15:35:59.670Z,2.30
2022-07-29T15:41:06.961Z,2.75
2022-07-29T15:46:29.484Z,2.42
2022-07-29T15:51:38.397Z,2.53
2022-07-29T15:56:44.986Z,2.30
2022-07-29T16:01:55.841Z,2.10
2022-07-29T16:07:11.002Z,1.90
2022-07-29T16:12:29.289Z,2.08
2022-07-29T16:17:46.812Z,1.80
2022-07-29T16:23:03.899Z,1.95
2022-07-29T16:28:11.765Z,2.17
2022-07-29T16:33:26.897Z,2.00
2022-07-29T16:38:47.153Z,2.30
2022-07-29T16:43:56.636Z,2.55
2022-07-29T16:49:16.985Z,2.42
2022-07-29T16:54:29.965Z,2.60
2022-07-29T16:59:43.536Z,2.63
2022-07-29T17:10:25.070Z,2.03
2022-07-29T17:15:37.202Z,2.22
2022-07-29T17:20:49.911Z,3.28
2022-07-29T17:26:00.442Z,3.47
2022-07-29T17:31:08.261Z,3.00
2022-07-29T17:36:28.164Z,2.90
2022-07-29T17:41:40.066Z,1.73
2022-07-29T17:47:15.557Z,1.70
2022-07-29T17:52:43.181Z,2.33
2022-07-29T17:58:01.964Z,2.58
2022-07-29T18:03:10.375Z,2.08
2022-07-29T18:08:23.013Z,2.00
2022-07-29T18:13:29.124Z,1.80
2022-07-29T18:18:39.690Z,2.08
2022-07-29T18:23:51.284Z,2.10
2022-07-29T18:29:02.813Z,2.33
2022-07-29T18:34:13.951Z,2.05
2022-07-29T18:39:24.198Z,1.85
2022-07-29T18:44:43.890Z,2.00
2022-07-29T18:49:56.707Z,1.92
2022-07-29T18:55:13.809Z,2.20
2022-07-29T19:00:40.939Z,1.90
2022-07-29T19:05:53.708Z,2.25
2022-07-29T19:10:59.179Z,2.50
2022-07-29T19:16:14.766Z,2.80
2022-07-29T19:21:32.437Z,3.17
2022-07-29T19:26:56.655Z,2.70
2022-07-29T19:32:24.781Z,2.53
2022-07-29T19:37:36.473Z,3.08
2022-07-29T19:42:48.509Z,2.83
2022-07-29T19:48:09.275Z,2.85
2022-07-29T19:53:17.222Z,2.90
2022-07-29T19:58:28.807Z,2.78
2022-07-29T20:03:36.314Z,2.97
2022-07-29T20:08:44.625Z,2.90
2022-07-29T20:14:12.209Z,2.50
2022-07-29T20:19:18.517Z,2.97
2022-07-29T20:24:32.570Z,3.13
2022-07-29T20:29:38.274Z,2.50
2022-07-29T20:40:33.480Z,3.13
2022-07-29T20:45:41.840Z,2.97
2022-07-29T20:50:53.568Z,2.97
2022-07-29T20:56:04.976Z,2.67
2022-07-29T21:01:30.699Z,3.05
2022-07-29T21:06:40.897Z,2.80
2022-07-29T21:11:47.516Z,2.80
2022-07-29T21:17:06.301Z,2.40
2022-07-29T21:22:11.359Z,2.50
2022-07-29T21:27:42.422Z,3.05
2022-07-29T21:32:51.323Z,3.30
2022-07-29T21:38:00.308Z,3.25
2022-07-29T21:43:14.453Z,3.38
2022-07-29T21:48:20.397Z,3.20
2022-07-29T21:53:28.063Z,3.58
2022-07-29T21:58:34.318Z,3.63
2022-07-29T22:03:45.286Z,3.90
2022-07-29T22:08:52.921Z,3.03
2022-07-29T22:14:17.260Z,3.17
2022-07-29T22:19:34.631Z,4.07
2022-07-29T22:24:45.172Z,3.65
2022-07-29T22:29:52.941Z,3.72
2022-07-29T22:35:02.503Z,3.63
2022-07-29T22:40:15.063Z,3.20
2022-07-29T22:45:25.882Z,3.70
2022-07-29T22:50:33.078Z,3.60
2022-07-29T22:55:38.308Z,4.70
2022-07-29T23:00:53.600Z,4.28
2022-07-29T23:06:00.435Z,4.10
2022-07-29T23:11:13.894Z,2.92
2022-07-29T23:16:47.028Z,3.20
2022-07-29T23:21:55.729Z,3.67
2022-07-29T23:26:59.976Z,3.13
2022-07-29T23:32:16.087Z,3.30
2022-07-29T23:37:21.321Z,3.45
2022-07-29T23:42:27.100Z,4.10
2022-07-29T23:47:37.854Z,3.63
2022-07-29T23:52:46.601Z,3.42
2022-07-29T23:57:54.918Z,3.53
